x

Smith Island, Wa (sisw1) Weather Station

7:50am - Tue 23rd Oct 2018 All times are PDT. -7 hours from GMT.

  • Wind
    13mph, 16mph gusts
  • Air Temp 47°f
  • Sea Pressure 1011mb
  • Smith Island, Wa
  • Smith Island, Wa

More Historic Weather Station data

Upgrade to MSW Pro to gain access to the past 30 days of data for over 8000 Wavebouys and Weather Stations around the globe.

Join

Comparision Forecast

View Surf forecast
   
Tue 10/23 7:50am 13 16 mph 1011mb 47f
6:50am 13 16 mph 1010.5mb 47f
5:50am 9 11 mph 1010.3mb 46f
4:50am 6 7 mph 1010.4mb 45f
3:50am 3 6 mph 1010.3mb 46f
2:50am 3 5 mph 1010.8mb 47f
1:50am 3 5 mph 1011.2mb 47f
12:50am 2 3 mph 1011.2mb 46f
Mon 10/22 11:50pm 3 3 mph 1011.4mb 45f
10:50pm  -  1 mph 1011.9mb 44f
9:50pm 7 8 mph 1012.1mb 44f
8:50pm 1 2 mph 1012.3mb 44f
7:50pm  -  1 mph 1012.1mb 45f
6:50pm 3 6 mph 1012.1mb 44f
5:50pm 1 2 mph 1012.1mb 44f
2:50pm 1 2 mph 1013.5mb 45f
1:50pm 1 3 mph 1014.3mb 45f
12:50pm  -  1 mph 1014.9mb 46f
11:50am 3 8 mph 1015.5mb 45f
10:50am 5 7 mph 1015.8mb 45f
9:50am 5 9 mph 1015.9mb 45f
8:50am 5 8 mph 1015.8mb 46f
7:50am 5 8 mph 1015.6mb 46f
6:50am 2 5 mph 1015.6mb 46f
5:50am 1 3 mph 1015.4mb 47f
4:50am 3 5 mph 1015.7mb 48f
2:50am 6 6 mph 1016mb 47f
1:50am 6 7 mph 1015.9mb 49f
12:50am 5 5 mph 1015.8mb 50f